createdAt,value
2018-09-09T00:04:36.992Z,7.73
2018-09-09T00:09:45.782Z,7.33
2018-09-09T00:14:49.467Z,5.67
2018-09-09T00:19:52.977Z,8.63
2018-09-09T00:24:56.255Z,6.60
2018-09-09T00:29:59.534Z,7.37
2018-09-09T00:35:02.824Z,6.83
2018-09-09T00:40:06.220Z,7.03
2018-09-09T00:45:09.493Z,9.57
2018-09-09T00:51:20.921Z,8.93
2018-09-09T00:56:24.178Z,7.60
2018-09-09T01:01:27.479Z,6.77
2018-09-09T01:06:30.769Z,8.33
2018-09-09T01:11:34.055Z,8.90
2018-09-09T01:16:37.313Z,9.03
2018-09-09T01:21:40.572Z,6.83
2018-09-09T01:26:43.831Z,7.93
2018-09-09T01:31:47.662Z,6.47
2018-09-09T01:36:50.940Z,10.83
2018-09-09T01:41:54.195Z,7.10
2018-09-09T01:46:57.449Z,8.50
2018-09-09T01:52:00.748Z,9.50
2018-09-09T01:57:04.019Z,6.70
2018-09-09T02:02:07.271Z,6.50
2018-09-09T02:07:10.531Z,7.97
2018-09-09T02:12:13.529Z,7.67
2018-09-09T02:17:16.804Z,8.23
2018-09-09T02:22:20.072Z,7.67
2018-09-09T02:27:23.347Z,8.60
2018-09-09T02:32:26.639Z,8.80
2018-09-09T02:37:29.914Z,9.40
2018-09-09T02:42:33.201Z,10.63
2018-09-09T02:47:36.494Z,12.60
2018-09-09T02:52:39.761Z,12.23
2018-09-09T02:57:43.028Z,10.73
2018-09-09T03:02:46.277Z,11.43
2018-09-09T03:07:49.528Z,9.63
2018-09-09T03:12:52.792Z,11.70
2018-09-09T03:17:56.073Z,12.60
2018-09-09T03:22:59.440Z,10.67
2018-09-09T03:28:02.715Z,12.60
2018-09-09T03:33:05.993Z,13.30
2018-09-09T03:38:09.267Z,13.67
2018-09-09T03:43:12.552Z,14.10
2018-09-09T03:48:15.841Z,18.83
2018-09-09T03:53:19.096Z,15.63
2018-09-09T03:58:22.376Z,14.93
2018-09-09T04:03:25.665Z,13.67
2018-09-09T04:08:28.945Z,12.67
2018-09-09T04:13:32.220Z,10.67
2018-09-09T04:18:35.498Z,10.87
2018-09-09T04:23:38.826Z,11.93
2018-09-09T04:28:42.097Z,13.67
2018-09-09T04:33:45.369Z,13.03
2018-09-09T04:38:48.624Z,13.97
2018-09-09T04:43:51.896Z,13.13
2018-09-09T04:48:55.160Z,12.60
2018-09-09T04:53:58.453Z,12.37
2018-09-09T04:59:01.757Z,13.20
2018-09-09T05:04:05.077Z,15.73
2018-09-09T05:09:09.109Z,17.50
2018-09-09T05:14:12.400Z,13.37
2018-09-09T05:19:15.682Z,13.03
2018-09-09T05:24:18.958Z,11.27
2018-09-09T05:29:22.244Z,10.83
2018-09-09T05:34:25.499Z,11.47
2018-09-09T05:39:28.788Z,11.10
2018-09-09T05:44:32.525Z,9.00
2018-09-09T05:49:35.774Z,7.47
2018-09-09T05:54:39.065Z,7.07
2018-09-09T06:00:45.416Z,6.80
2018-09-09T06:05:48.697Z,6.47
2018-09-09T06:10:54.776Z,5.93
2018-09-09T06:15:58.060Z,7.30
2018-09-09T06:21:01.322Z,7.20
2018-09-09T06:26:04.576Z,6.27
2018-09-09T06:31:07.848Z,5.73
2018-09-09T06:36:11.117Z,5.47
2018-09-09T06:41:14.433Z,6.70
2018-09-09T06:46:17.756Z,7.23
2018-09-09T06:51:21.034Z,6.40
2018-09-09T06:56:24.262Z,6.17
2018-09-09T07:01:27.530Z,7.03
2018-09-09T07:06:32.525Z,9.40
2018-09-09T07:11:36.032Z,5.83
2018-09-09T07:16:39.128Z,6.83
2018-09-09T07:21:42.393Z,5.93
2018-09-09T07:26:45.640Z,7.00
2018-09-09T07:31:49.917Z,6.40
2018-09-09T07:36:53.251Z,6.83
2018-09-09T07:41:56.572Z,6.73
2018-09-09T07:46:59.854Z,6.27
2018-09-09T07:52:03.137Z,7.10
2018-09-09T07:57:06.914Z,8.00
2018-09-09T08:02:10.187Z,7.03
2018-09-09T08:07:14.275Z,7.13
2018-09-09T08:12:17.533Z,8.83
2018-09-09T08:17:21.067Z,7.23
2018-09-09T08:22:24.957Z,8.00
2018-09-09T08:27:29.727Z,8.90
2018-09-09T08:32:33.044Z,11.80
2018-09-09T08:37:36.304Z,9.30
2018-09-09T08:42:39.564Z,7.97
2018-09-09T08:47:42.846Z,9.45
2018-09-09T08:52:49.250Z,8.40
2018-09-09T08:57:52.521Z,7.95
2018-09-09T09:02:56.488Z,8.73
2018-09-09T09:08:00.405Z,7.85
2018-09-09T09:13:03.512Z,8.60
2018-09-09T09:18:06.834Z,8.38
2018-09-09T09:23:10.084Z,7.33
2018-09-09T09:28:13.367Z,7.03
2018-09-09T09:33:16.688Z,7.00
2018-09-09T09:38:21.216Z,8.20
2018-09-09T09:43:24.646Z,7.05
2018-09-09T09:48:28.017Z,7.30
2018-09-09T09:53:31.483Z,7.12
2018-09-09T09:58:34.703Z,7.12
2018-09-09T10:03:38.053Z,6.60
2018-09-09T10:08:41.448Z,6.20
2018-09-09T10:13:44.728Z,5.53
2018-09-09T10:18:48.081Z,6.58
2018-09-09T10:23:51.446Z,7.15
2018-09-09T10:28:54.844Z,6.17
2018-09-09T10:33:58.259Z,4.62
2018-09-09T10:39:01.557Z,6.62
2018-09-09T10:44:04.812Z,6.75
2018-09-09T10:49:08.080Z,5.37
2018-09-09T10:54:11.349Z,5.12
2018-09-09T10:59:14.744Z,5.33
2018-09-09T11:04:18.013Z,4.87
2018-09-09T11:09:21.267Z,5.37
2018-09-09T11:14:24.545Z,4.55
2018-09-09T11:19:27.806Z,4.28
2018-09-09T11:24:31.172Z,4.37
2018-09-09T11:29:34.412Z,6.05
2018-09-09T11:34:37.840Z,3.87
2018-09-09T11:39:40.847Z,5.30
2018-09-09T11:44:44.120Z,4.50
2018-09-09T11:49:47.460Z,4.10
2018-09-09T11:54:50.798Z,6.42
2018-09-09T11:59:54.076Z,4.65
2018-09-09T12:04:57.354Z,4.17
2018-09-09T12:10:00.604Z,5.12
2018-09-09T12:15:03.871Z,3.50
2018-09-09T12:20:07.164Z,5.70
2018-09-09T12:25:10.436Z,3.95
2018-09-09T12:30:13.681Z,4.25
2018-09-09T12:35:16.988Z,1.67
2018-09-09T12:40:20.257Z,3.62
2018-09-09T12:45:28.678Z,4.30
2018-09-09T12:50:31.947Z,5.25
2018-09-09T12:55:35.217Z,4.75
2018-09-09T13:00:39.592Z,3.37
2018-09-09T13:05:43.684Z,6.70
2018-09-09T13:10:46.942Z,5.65
2018-09-09T13:15:50.979Z,3.80
2018-09-09T13:20:54.488Z,4.17
2018-09-09T13:25:57.777Z,3.65
2018-09-09T13:31:01.013Z,3.70
2018-09-09T13:36:04.297Z,3.25
2018-09-09T13:41:07.536Z,3.80
2018-09-09T13:46:10.778Z,3.25
2018-09-09T13:51:14.043Z,3.80
2018-09-09T13:56:17.299Z,3.40
2018-09-09T14:01:20.584Z,4.37
2018-09-09T14:06:23.890Z,4.62
2018-09-09T14:11:27.148Z,3.60
2018-09-09T14:16:30.412Z,3.37
2018-09-09T14:21:33.706Z,3.45
2018-09-09T14:26:36.996Z,3.17
2018-09-09T14:31:40.261Z,3.98
2018-09-09T14:36:43.684Z,4.05
2018-09-09T14:41:46.936Z,3.87
2018-09-09T14:46:50.403Z,3.90
2018-09-09T14:51:53.853Z,3.40
2018-09-09T14:56:57.155Z,3.45
2018-09-09T15:02:00.741Z,4.10
2018-09-09T15:07:04.054Z,4.00
2018-09-09T15:12:07.373Z,5.80
2018-09-09T15:17:10.621Z,4.15
2018-09-09T15:22:14.153Z,4.53
2018-09-09T15:27:17.430Z,2.80
2018-09-09T15:32:21.799Z,3.58
2018-09-09T15:37:25.168Z,3.30
2018-09-09T15:42:29.365Z,3.15
2018-09-09T15:47:32.710Z,3.20
2018-09-09T15:52:36.240Z,3.65
2018-09-09T15:57:40.398Z,3.22
2018-09-09T16:02:43.696Z,3.75
2018-09-09T16:07:47.080Z,3.75
2018-09-09T16:12:53.831Z,4.22
2018-09-09T16:17:57.044Z,3.33
2018-09-09T16:23:00.809Z,4.35
2018-09-09T16:28:04.169Z,3.75
2018-09-09T16:33:07.445Z,4.30
2018-09-09T16:38:10.712Z,5.58
2018-09-09T16:43:13.985Z,4.03
2018-09-09T16:48:17.710Z,4.58
2018-09-09T16:53:21.657Z,3.83
2018-09-09T16:58:24.954Z,4.10
2018-09-09T17:03:29.903Z,4.78
2018-09-09T17:08:33.995Z,4.53
2018-09-09T17:13:38.202Z,5.03
2018-09-09T17:18:42.931Z,5.87
2018-09-09T17:23:47.189Z,3.97
2018-09-09T17:28:50.822Z,5.53
2018-09-09T17:33:54.779Z,5.00
2018-09-09T17:39:00.336Z,5.83
2018-09-09T17:44:03.725Z,5.73
2018-09-09T17:49:06.797Z,4.57
2018-09-09T17:54:15.864Z,9.93
2018-09-09T17:59:19.602Z,4.70
2018-09-09T18:04:23.061Z,4.17
2018-09-09T18:09:27.069Z,5.50
2018-09-09T18:14:30.982Z,4.57
2018-09-09T18:19:35.870Z,6.00
2018-09-09T18:24:39.472Z,9.87
2018-09-09T18:29:43.253Z,9.07
2018-09-09T18:34:46.687Z,6.30
2018-09-09T18:39:53.023Z,6.40
2018-09-09T18:44:56.217Z,5.50
2018-09-09T18:49:59.412Z,4.80
2018-09-09T18:55:03.047Z,4.93
2018-09-09T19:00:06.625Z,6.00
2018-09-09T19:05:10.933Z,10.93
2018-09-09T19:10:14.850Z,4.90
2018-09-09T19:15:18.336Z,7.10
2018-09-09T19:20:21.933Z,5.50
2018-09-09T19:25:25.433Z,5.00
2018-09-09T19:30:29.129Z,6.70
2018-09-09T19:35:32.612Z,5.67
2018-09-09T19:40:36.199Z,5.43
2018-09-09T19:45:43.148Z,6.80
2018-09-09T19:50:46.637Z,6.43
2018-09-09T19:55:50.042Z,5.13
2018-09-09T20:00:53.372Z,5.87
2018-09-09T20:05:56.671Z,7.50
2018-09-09T20:11:00.053Z,6.10
2018-09-09T20:16:03.064Z,6.40
2018-09-09T20:21:07.201Z,6.77
2018-09-09T20:26:10.842Z,6.63
2018-09-09T20:31:14.600Z,9.27
2018-09-09T20:36:18.582Z,5.30
2018-09-09T20:41:24.942Z,7.57
2018-09-09T20:46:29.252Z,6.47
2018-09-09T20:51:33.364Z,6.47
2018-09-09T20:56:37.632Z,7.43
2018-09-09T21:01:42.069Z,6.57
2018-09-09T21:06:45.742Z,6.80
2018-09-09T21:11:49.365Z,6.13
2018-09-09T21:16:53.002Z,6.20
2018-09-09T21:21:56.155Z,6.57
2018-09-09T21:26:59.843Z,5.50
2018-09-09T21:32:03.159Z,5.77
2018-09-09T21:37:06.576Z,9.93
2018-09-09T21:42:09.912Z,7.60
2018-09-09T21:47:14.313Z,8.07
2018-09-09T21:52:18.487Z,6.33
2018-09-09T21:57:21.767Z,6.70
2018-09-09T22:02:24.780Z,6.07
2018-09-09T22:07:27.773Z,6.93
2018-09-09T22:12:31.046Z,8.43
2018-09-09T22:17:34.043Z,8.10
2018-09-09T22:22:37.071Z,7.50
2018-09-09T22:27:40.344Z,7.70
2018-09-09T22:32:43.616Z,6.60
2018-09-09T22:37:46.607Z,6.57
2018-09-09T22:42:49.892Z,9.83
2018-09-09T22:47:53.206Z,7.90
2018-09-09T22:52:56.468Z,8.10
2018-09-09T22:57:59.472Z,7.60
2018-09-09T23:03:02.750Z,7.50
2018-09-09T23:08:06.156Z,7.17
2018-09-09T23:13:09.429Z,7.87
2018-09-09T23:18:12.690Z,8.83
2018-09-09T23:23:15.944Z,7.33
2018-09-09T23:28:19.214Z,7.80
2018-09-09T23:33:22.499Z,7.57
2018-09-09T23:38:25.764Z,6.93
2018-09-09T23:43:29.008Z,8.47
2018-09-09T23:48:32.269Z,9.43
2018-09-09T23:53:35.559Z,8.77
2018-09-09T23:58:38.833Z,7.87
